Latest Weather Observations for Yarrawonga

IDV60801

Issued at 2:12 pm EDT Tuesday 27 February 2024 (issued every 10 minutes, with the page automatically refreshed every 10 minutes)

About weather observations | Map of weather stations | Latest weather observations for VIC | Other Formats
Station Details ID: 081124 Name: YARRAWONGA Lat: -36.03 Lon: 146.03 Height: 128.9 m
Data from the previous 72 hours. | See also: Recent months at Yarrawonga
Date/Time
EDT
Temp
°C
App
Temp
°C
Dew
Point
°C
Rel
Hum
%
Delta-T
°C
Wind Press
QNH
hPa
Press
MSL
hPa
Rain since
9am
mm
Dir  Spd
km/h
Gust
km/h
Spd
kts
Gust
kts
27/02:00pm 32.7 30.5 9.5 24 13.2 NNE 11 20 6 11 1013.3 1012.7 0.0
27/01:30pm 32.0 31.0 12.3 30 11.7 N 9 19 5 10 1013.6 1013.1 0.0
27/01:00pm 30.9 29.3 12.8 33 10.8 N 13 20 7 11 1013.6 1013.1 0.0
27/12:30pm 30.1 28.6 13.0 35 10.2 NNE 13 20 7 11 1013.9 1013.4 0.0
27/12:00pm 29.8 28.7 14.4 39 9.4 N 13 19 7 10 1014.4 1013.9 0.0
27/11:30am 28.4 26.5 14.3 42 8.5 N 17 24 9 13 1015.1 1014.5 0.0
27/11:00am 27.4 24.6 14.4 45 7.8 NNE 22 30 12 16 1015.3 1014.7 0.0
27/10:30am 25.8 23.3 14.0 48 7.0 NE 20 30 11 16 1015.3 1014.7 0.0
27/10:00am 24.5 22.2 14.0 52 6.2 NE 19 30 10 16 1015.5 1014.9 0.0
27/09:30am 22.9 21.0 14.2 58 5.1 ENE 17 24 9 13 1015.6 1015.0 0.0
27/09:00am 21.7 19.7 13.9 61 4.5 ENE 17 22 9 12 1015.4 1014.8 0.0
27/08:30am 20.9 18.7 14.3 66 3.9 NE 19 24 10 13 1015.3 1014.7 0.0
27/08:00am 19.2 18.0 14.0 72 3.0 NE 13 17 7 9 1015.0 1014.4 0.0
27/07:30am 14.4 14.0 12.3 87 1.1 NE 6 9 3 5 1014.8 1014.3 0.0
27/07:00am 12.7 12.2 10.8 88 1.0 ENE 4 6 2 3 1014.6 1014.1 0.0
27/06:30am 12.3 12.5 10.4 88 1.0 CALM 0 4 0 2 1014.2 1013.7 0.0
27/06:00am 13.2 13.5 10.9 86 1.2 CALM 0 0 0 0 1014.0 1013.5 0.0
27/05:30am 13.9 13.5 11.2 84 1.4 SSW 4 6 2 3 1013.8 1013.3 0.0
27/05:00am 14.2 13.8 11.2 82 1.6 S 4 4 2 2 1013.5 1012.9 0.0
27/04:30am 14.1 13.4 11.3 83 1.5 S 6 7 3 4 1013.4 1012.8 0.0
27/04:00am 14.2 13.4 11.2 82 1.6 SSW 6 6 3 3 1013.3 1012.7 0.0
27/03:30am 15.1 14.3 11.1 77 2.1 SW 6 7 3 4 1013.6 1013.1 0.0
27/03:00am 15.3 14.5 10.9 75 2.4 WSW 6 9 3 5 1013.5 1012.9 0.0
27/02:30am 16.1 15.2 11.3 73 2.6 WSW 7 9 4 5 1013.6 1013.1 0.0
27/02:00am 16.1 14.2 10.6 70 2.9 WSW 11 11 6 6 1013.5 1012.9 0.0
27/01:30am 17.1 15.7 10.9 67 3.3 WSW 9 11 5 6 1013.7 1013.2 0.0
27/01:00am 17.4 15.2 10.8 65 3.6 WSW 13 17 7 9 1014.1 1013.6 0.0
27/12:30am 18.7 16.0 10.5 59 4.4 WSW 15 17 8 9 1014.0 1013.5 0.0
27/12:00am 19.4 16.7 10.4 56 4.9 WSW 15 20 8 11 1013.9 1013.4 0.0
 
Date/Time
EDT
Temp
°C
App
Temp
°C
Dew
Point
°C
Rel
Hum
%
Delta-T
°C
Wind Press
QNH
hPa
Press
MSL
hPa
Rain since
9am
mm
Dir  Spd
km/h
Gust
km/h
Spd
kts
Gust
kts
26/11:30pm 20.1 17.4 10.5 54 5.2 WSW 15 19 8 10 1014.1 1013.6 0.0
26/11:00pm 20.7 17.7 10.8 53 5.4 WSW 17 22 9 12 1014.1 1013.6 0.0
26/10:30pm 21.5 19.2 10.6 50 6.0 WSW 13 19 7 10 1014.1 1013.6 0.0
26/10:00pm 21.9 19.2 10.4 48 6.3 WSW 15 19 8 10 1013.9 1013.4 0.0
26/09:30pm 22.6 20.2 10.1 45 6.9 WSW 13 17 7 9 1013.8 1013.3 0.0
26/09:00pm 23.7 20.8 9.7 41 7.7 WSW 15 19 8 10 1014.0 1013.5 0.0
26/08:30pm 24.4 21.1 9.6 39 8.1 WSW 17 20 9 11 1013.5 1012.9 0.0
26/08:00pm 25.6 22.2 9.0 35 9.1 WSW 17 20 9 11 1013.2 1012.6 0.0
26/07:30pm 27.7 22.8 8.6 30 10.5 WSW 24 30 13 16 1013.0 1012.4 0.0
26/07:00pm 28.8 25.0 9.0 29 11.0 WSW 19 26 10 14 1013.0 1012.4 0.0
26/06:30pm 29.8 26.2 8.2 26 11.9 WSW 17 24 9 13 1012.8 1012.2 0.0
26/06:00pm 30.9 27.4 8.6 25 12.4 SW 17 24 9 13 1012.6 1012.0 0.0
26/05:30pm 31.6 27.8 9.2 25 12.7 SW 19 26 10 14 1012.5 1011.9 0.0
26/05:00pm 32.5 28.9 9.9 25 13.0 WSW 19 35 10 19 1012.5 1011.9 0.0
26/04:30pm 32.7 29.0 9.5 24 13.2 SW 19 28 10 15 1012.7 1012.1 0.0
26/04:00pm 33.1 31.1 8.5 22 13.9 SW 9 22 5 12 1013.0 1012.4 0.0
26/03:30pm 32.5 28.9 6.7 20 14.1 SW 15 28 8 15 1013.3 1012.7 0.0
26/03:00pm 33.5 29.7 5.9 18 14.9 SW 15 26 8 14 1013.6 1013.1 0.0
26/02:30pm 32.1 29.1 2.2 15 15.1 WSW 7 20 4 11 1013.9 1013.4 0.0
26/02:00pm 32.0 28.5 1.2 14 15.3 SSW 9 17 5 9 1014.3 1013.8 0.0
26/01:30pm 31.1 27.8 4.8 19 13.8 SSW 11 19 6 10 1014.4 1013.9 0.0
26/01:00pm 30.7 27.3 5.9 21 13.2 SSW 13 20 7 11 1014.7 1014.2 0.0
26/12:30pm 29.9 26.4 7.2 24 12.3 SW 15 22 8 12 1015.3 1014.7 0.0
26/12:00pm 29.2 25.8 7.7 26 11.7 SW 15 24 8 13 1015.5 1014.9 0.0
26/11:30am 27.8 24.9 9.6 32 10.2 SSW 15 28 8 15 1015.7 1015.1 0.0
26/11:00am 26.5 23.6 11.0 38 8.8 SSW 17 22 9 12 1015.7 1015.1 0.0
26/10:30am 25.0 22.4 10.8 41 8.0 SSW 15 19 8 10 1015.7 1015.1 0.0
26/10:00am 24.4 22.0 11.4 44 7.4 SSW 15 20 8 11 1015.6 1015.0 0.0
26/09:30am 23.4 21.0 11.5 47 6.7 SSW 15 22 8 12 1015.5 1014.9 0.0
26/09:00am 21.4 19.3 12.5 57 5.1 SW 15 20 8 11 1015.4 1014.8 0.0
26/08:30am 18.9 17.2 12.4 66 3.6 SW 13 17 7 9 1014.8 1014.3 0.0
26/08:00am 18.1 17.3 13.0 72 2.9 SW 9 13 5 7 1014.5 1014.0 0.0
26/07:30am 17.1 16.3 12.8 76 2.4 SW 9 11 5 6 1014.2 1013.7 0.0
26/07:00am 17.1 15.1 12.6 75 2.5 SW 15 17 8 9 1014.0 1013.5 0.0
26/06:30am 17.7 16.8 12.6 72 2.9 SW 9 13 5 7 1013.5 1012.9 0.0
26/06:00am 18.6 17.3 12.6 68 3.4 SW 11 15 6 8 1013.4 1012.8 0.0
26/05:30am 19.4 18.5 12.7 65 3.8 WSW 9 11 5 6 1013.1 1012.5 0.0
26/05:00am 19.6 19.3 12.8 65 3.9 SW 6 7 3 4 1012.6 1012.0 0.0
26/04:30am 20.2 19.7 12.7 62 4.3 WSW 7 9 4 5 1012.8 1012.2 0.0
26/04:00am 20.8 20.5 12.8 60 4.6 SW 6 9 3 5 1012.7 1012.1 0.0
26/03:30am 21.6 21.0 12.2 55 5.3 SW 7 9 4 5 1012.9 1012.3 0.0
26/03:00am 22.0 20.7 11.4 51 5.9 SW 9 13 5 7 1012.9 1012.3 0.0
26/02:30am 22.6 21.0 11.4 49 6.3 SW 11 24 6 13 1013.1 1012.5 0.0
26/02:00am 21.4 22.4 13.1 59 4.8 CALM 0 4 0 2 1012.7 1012.1 0.0
26/01:30am 21.4 22.1 12.3 56 5.2 CALM 0 0 0 0 1012.6 1012.0 0.0
26/01:00am 21.1 21.7 12.0 56 5.1 CALM 0 0 0 0 1012.4 1011.8 0.0
26/12:30am 21.0 21.7 12.2 57 5.0 CALM 0 2 0 1 1012.6 1012.0 0.0
26/12:00am 21.2 21.9 12.1 56 5.1 CALM 0 0 0 0 1012.7 1012.1 0.0
 
Date/Time
EDT
Temp
°C
App
Temp
°C
Dew
Point
°C
Rel
Hum
%
Delta-T
°C
Wind Press
QNH
hPa
Press
MSL
hPa
Rain since
9am
mm
Dir  Spd
km/h
Gust
km/h
Spd
kts
Gust
kts
25/11:30pm 22.8 23.3 11.5 49 6.4 CALM 0 0 0 0 1012.8 1012.2 0.0
25/11:00pm 23.0 23.1 11.4 48 6.5 S 2 4 1 2 1012.9 1012.3 0.0
25/10:30pm 24.0 23.7 11.3 45 7.2 S 4 6 2 3 1013.1 1012.5 0.0
25/10:00pm 24.9 23.6 10.0 39 8.3 S 7 11 4 6 1013.1 1012.5 0.0
25/09:30pm 24.0 23.0 11.0 44 7.3 S 7 9 4 5 1013.1 1012.5 0.0
25/09:00pm 24.4 23.3 10.7 42 7.7 SSW 7 9 4 5 1012.8 1012.2 0.0
25/08:30pm 24.8 23.4 9.5 38 8.4 WSW 7 9 4 5 1012.8 1012.2 0.0
25/08:00pm 27.1 25.6 8.5 31 10.2 W 6 7 3 4 1012.6 1012.0 0.0
25/07:30pm 29.9 27.7 7.8 25 12.1 W 9 11 5 6 1012.5 1011.9 0.0
25/07:00pm 31.1 28.7 6.9 22 13.2 W 9 13 5 7 1012.2 1011.6 0.0
25/06:30pm 31.8 29.8 8.7 24 13.0 W 9 13 5 7 1011.9 1011.3 0.0
25/06:00pm 32.2 29.7 8.4 23 13.3 WSW 11 19 6 10 1012.0 1011.4 0.0
25/05:30pm 31.8 29.7 8.1 23 13.2 WNW 9 15 5 8 1012.0 1011.4 0.0
25/05:00pm 32.3 30.6 8.5 23 13.4 NW 7 15 4 8 1012.3 1011.7 0.0
25/04:30pm 32.1 29.1 7.7 22 13.5 W 13 22 7 12 1012.6 1012.0 0.0
25/04:00pm 31.7 28.6 7.4 22 13.4 WSW 13 20 7 11 1013.0 1012.4 0.0
25/03:30pm 31.7 30.2 10.4 27 12.3 WNW 9 17 5 9 1013.2 1012.6 0.0
25/03:00pm 31.6 29.8 10.9 28 12.0 NW 11 19 6 10 1013.7 1013.2 0.0
25/02:30pm 30.7 29.4 11.1 30 11.4 WNW 9 17 5 9 1014.1 1013.6 0.0
25/02:00pm 29.9 29.1 12.8 35 10.2 WNW 9 17 5 9 1014.5 1014.0 0.0
25/01:30pm 29.1 28.6 12.1 35 10.0 N 6 13 3 7 1015.1 1014.5 0.0
25/01:00pm 28.9 28.4 12.8 37 9.5 NW 7 15 4 8 1015.4 1014.8 0.0
25/12:30pm 27.7 26.8 12.5 39 8.9 N 9 15 5 8 1016.1 1015.5 0.0
25/12:00pm 26.7 25.4 12.4 41 8.3 NNE 11 17 6 9 1016.4 1015.8 0.0
25/11:30am 25.9 24.7 12.7 44 7.7 NE 11 19 6 10 1016.8 1016.2 0.0
25/11:00am 24.8 23.5 12.4 46 7.1 NNE 11 20 6 11 1017.3 1016.7 0.0
25/10:30am 24.2 21.3 12.2 47 6.9 NE 19 26 10 14 1017.1 1016.5 0.0
25/10:00am 22.7 19.6 12.3 52 5.9 NE 20 28 11 15 1017.3 1016.7 0.0
25/09:30am 20.8 17.4 12.5 59 4.7 NE 22 30 12 16 1017.6 1017.0 0.0
25/09:00am 19.9 17.7 13.4 66 3.7 NE 17 24 9 13 1017.9 1017.3 0.0
25/08:30am 19.6 17.0 13.3 67 3.6 ENE 19 26 10 14 1017.7 1017.1 0.0
25/08:00am 18.6 16.2 12.8 69 3.3 ENE 17 33 9 18 1017.4 1016.8 0.0
25/07:30am 17.8 15.5 13.1 74 2.7 ENE 17 24 9 13 1017.3 1016.7 0.0
25/07:00am 16.5 15.0 13.2 81 1.9 ENE 13 19 7 10 1017.1 1016.5 0.0
25/06:30am 16.1 15.1 13.4 84 1.5 ENE 11 13 6 7 1016.8 1016.2 0.0
25/06:00am 16.4 15.0 13.3 82 1.7 NE 13 17 7 9 1016.8 1016.2 0.0
25/05:30am 16.6 14.8 13.3 81 1.9 NE 15 19 8 10 1016.3 1015.7 0.0
25/05:00am 16.7 15.2 13.0 79 2.1 NE 13 17 7 9 1016.4 1015.8 0.0
25/04:30am 17.1 15.6 13.0 77 2.3 NE 13 17 7 9 1016.2 1015.6 0.0
25/04:00am 15.5 13.9 11.5 77 2.2 NNE 11 17 6 9 1016.1 1015.5 0.0
25/03:30am 16.1 14.9 11.5 74 2.5 NNE 9 17 5 9 1016.2 1015.6 0.0
25/03:00am 14.9 14.1 11.1 78 2.0 NNE 6 7 3 4 1016.1 1015.5 0.0
25/02:30am 13.9 12.5 10.9 82 1.6 NNE 9 15 5 8 1016.3 1015.7 0.0
25/02:00am 13.4 12.9 9.5 77 2.0 S 2 7 1 4 1015.8 1015.2 0.0
25/01:30am 14.4 13.3 9.8 74 2.4 WSW 6 6 3 3 1015.6 1015.0 0.0
25/01:00am 15.1 14.0 9.9 71 2.7 WSW 6 6 3 3 1015.7 1015.1 0.0
25/12:30am 15.6 14.4 9.7 68 3.1 WSW 6 6 3 3 1015.8 1015.2 0.0
25/12:00am 16.1 15.0 9.8 66 3.3 WSW 6 7 3 4 1015.8 1015.2 0.0
 
Date/Time
EDT
Temp
°C
App
Temp
°C
Dew
Point
°C
Rel
Hum
%
Delta-T
°C
Wind Press
QNH
hPa
Press
MSL
hPa
Rain since
9am
mm
Dir  Spd
km/h
Gust
km/h
Spd
kts
Gust
kts
24/11:30pm 16.8 15.3 9.2 61 4.0 WSW 7 7 4 4 1015.7 1015.1 0.0
24/11:00pm 17.4 15.4 8.8 57 4.5 WSW 9 11 5 6 1015.9 1015.3 0.0
24/10:30pm 20.0 17.8 7.7 45 6.4 W 9 11 5 6 1016.0 1015.4 0.0
24/10:00pm 19.9 18.0 7.6 45 6.3 W 7 11 4 6 1015.8 1015.2 0.0
24/09:30pm 20.9 19.9 7.2 41 7.1 SSW 2 2 1 1 1015.6 1015.0 0.0
24/09:00pm 21.6 20.2 7.4 40 7.4 SSW 4 4 2 2 1015.4 1014.8 0.0
24/08:30pm 22.6 20.8 7.2 37 8.0 SSW 6 7 3 4 1015.1 1014.5 0.0
24/08:00pm 24.7 22.7 6.9 32 9.3 S 7 9 4 5 1014.6 1014.1 0.0
24/07:30pm 27.4 23.9 5.6 25 11.3 SSW 13 17 7 9 1014.5 1014.0 0.0
24/07:00pm 28.5 24.6 5.4 23 12.1 SSW 15 20 8 11 1014.3 1013.8 0.0
24/06:30pm 29.2 26.2 6.0 23 12.3 SSW 11 19 6 10 1014.2 1013.7 0.0
24/06:00pm 29.6 26.9 5.6 22 12.6 S 9 15 5 8 1014.2 1013.7 0.0
24/05:30pm 29.6 26.5 5.6 22 12.7 S 11 19 6 10 1014.3 1013.8 0.0
24/05:00pm 29.6 27.0 6.3 23 12.4 S 9 17 5 9 1014.4 1013.9 0.0
24/04:30pm 29.8 27.0 7.1 24 12.3 SW 11 24 6 13 1014.6 1014.1 0.0
24/04:00pm 28.9 26.1 6.9 25 11.8 SSW 11 20 6 11 1015.0 1014.4 0.0
24/03:30pm 27.9 25.0 6.6 26 11.3 SSW 11 19 6 10 1015.3 1014.7 0.0
24/03:00pm 27.9 24.9 7.7 28 10.9 SW 13 20 7 11 1015.6 1015.0 0.0
24/02:30pm 27.3 25.1 7.7 29 10.6 SW 9 15 5 8 1016.1 1015.5 0.0

Other formats

Comma delimited format used in spreadsheet applications
http://www.bom.gov.au/fwo/IDV60801/IDV60801.94862.axf

JavaScript Object Notation format (JSON) in row-major order
http://www.bom.gov.au/fwo/IDV60801/IDV60801.94862.json

Data quality

Most of these data are generated automatically and are frequently updated. Quality checks on data are not normally performed. It is possible for incorrect values to appear. Refer to information at About Latest Weather Observations and please check the disclaimer before using these data.